Aérodrome :
LOGIN :

S'inscrire | Disclaimer

   EN    FR    IT 

 










Légende :    VFR   VFR Marginal   IFR   IFR Intensif   IFR Très Intensif
Visi : 
Plafond : 
>= 8 km
>= 3000ft
5 à 8 km
1000 à 3000 ft
1500m à 5 km
500 à 1000 ft
800 à 1500m
200 à 500 ft
< 800m
< 200 ft
Symboles :   Orages  Brouillard  Fortes neiges  Fortes précipitations  Vent > 20 kt
SIGMETs :   Divers  Orages  Givrage  Turbulence  Onde Orograph.  Cendres Volcan.







- Altitude de l'aérodrome : 1411 ft
- Code IATA : ZHI


LSZG - Grenchen

DERNIER METAR :
  • 151120Z 24016KT 9999 -SHRA FEW021 BKN027 BKN039 05/01 Q1001 NOSIG

METARs EXPIRÉS :
  • 151050Z 25017KT 9999 SCT018 BKN024 05/02 Q1002 NOSIG
  • 151020Z 24016KT 9999 SCT017 SCT050 05/02 Q1002 NOSIG
  • 150950Z 24013KT 9999 -SHRA BKN017 03/01 Q1002 TEMPO 26030KT 5000
  • 150920Z 25013KT 9999 -SHRA BKN017 04/01 Q1001 TEMPO 5000
  • 150850Z 23012KT 9999 SCT017 BKN049 04/01 Q1001 NOSIG

TAF TAF LSZG
Valide du 15 à 12h jusqu'au 15 à 21h UTC


151125Z 1512/1521 23007KT 9999 SCT015 BKN025
PROB40
TEMPO 1512/1518 25012G25KT 4000 SHRA SCT012TCU BKN014
PROB30
TEMPO 1512/1521 2000 SHSN BKN014
ATIS : +41 32 396 96 33
Pas de NOTAMs connus pour ce terrain.



MET'MAP, la Météo Aéronautique d'un coup d'oeil ! - Copyright ORBIFLY Décembre 2007 - Disclaimer

ORBIFLY MET'MAP TEAM :

Programmation & Développement : Alexandra Zaïnal
Conception & Développement : Baudouin d'Aumeries
Co-Programmation & Développement : Marc-Olivier Méhu
Soutien technique & logistique : Manuel Goepfert

Contact : metmap@orbifly.com




SOURCES & CREDITS :

   NOAA